createdAt,value
2017-11-04T00:00:11.647Z,0.00
2017-11-04T00:01:11.513Z,0.00
2017-11-04T00:02:10.960Z,0.00
2017-11-04T00:03:11.352Z,0.00
2017-11-04T00:04:10.731Z,0.00
2017-11-04T00:05:10.558Z,0.00
2017-11-04T00:06:11.187Z,0.00
2017-11-04T00:07:10.868Z,0.00
2017-11-04T00:08:10.251Z,0.00
2017-11-04T00:09:10.492Z,0.00
2017-11-04T00:10:11.231Z,0.00
2017-11-04T00:11:11.060Z,0.00
2017-11-04T00:12:10.800Z,0.00
2017-11-04T00:13:11.221Z,0.00
2017-11-04T00:14:10.898Z,0.00
2017-11-04T00:15:11.693Z,0.00
2017-11-04T00:16:11.176Z,0.00
2017-11-04T00:17:10.399Z,0.00
2017-11-04T00:18:10.554Z,0.00
2017-11-04T00:19:10.829Z,0.00
2017-11-04T00:20:11.466Z,0.00
2017-11-04T00:21:11.835Z,0.00
2017-11-04T00:22:11.135Z,0.00
2017-11-04T00:23:10.599Z,0.00
2017-11-04T00:24:10.509Z,0.00
2017-11-04T00:25:10.900Z,0.00
2017-11-04T00:26:10.664Z,0.00
2017-11-04T00:27:10.912Z,0.00
2017-11-04T00:28:11.603Z,0.00
2017-11-04T00:29:11.066Z,0.00
2017-11-04T00:30:10.545Z,0.00
2017-11-04T00:31:11.087Z,0.00
2017-11-04T00:32:10.198Z,0.00
2017-11-04T00:33:10.202Z,0.00
2017-11-04T00:34:10.500Z,0.00
2017-11-04T00:35:11.065Z,0.00
2017-11-04T00:36:10.789Z,0.00
2017-11-04T00:37:11.760Z,0.00
2017-11-04T00:38:11.384Z,0.00
2017-11-04T00:39:10.531Z,0.00
2017-11-04T00:40:10.921Z,0.00
2017-11-04T00:41:10.324Z,0.00
2017-11-04T00:42:10.829Z,0.00
2017-11-04T00:43:10.517Z,0.00
2017-11-04T00:44:10.344Z,0.00
2017-11-04T00:45:10.586Z,0.00
2017-11-04T00:46:10.891Z,0.00
2017-11-04T00:47:10.245Z,0.00
2017-11-04T00:48:11.215Z,0.00
2017-11-04T00:49:11.065Z,0.00
2017-11-04T00:50:10.677Z,0.00
2017-11-04T00:51:11.129Z,0.00
2017-11-04T00:52:10.494Z,0.00
2017-11-04T00:53:11.164Z,0.00
2017-11-04T00:54:11.002Z,0.00
2017-11-04T00:55:10.384Z,0.00
2017-11-04T00:56:10.894Z,0.00
2017-11-04T00:57:10.623Z,0.00
2017-11-04T00:58:11.238Z,0.00
2017-11-04T00:59:12.209Z,0.00
2017-11-04T01:00:12.100Z,0.00
2017-11-04T01:01:11.992Z,0.00
2017-11-04T01:02:11.804Z,0.00
2017-11-04T01:03:13.002Z,0.00
2017-11-04T01:04:12.279Z,0.00
2017-11-04T01:05:11.316Z,0.00
2017-11-04T01:06:12.403Z,0.00
2017-11-04T01:07:12.096Z,0.00
2017-11-04T01:08:13.540Z,0.00
2017-11-04T01:09:13.733Z,0.00
2017-11-04T01:10:13.529Z,0.00
2017-11-04T01:11:12.979Z,0.00
2017-11-04T01:12:14.423Z,0.00
2017-11-04T01:13:12.005Z,0.00
2017-11-04T01:14:12.626Z,0.00
2017-11-04T01:15:14.988Z,0.00
2017-11-04T01:16:12.473Z,0.00
2017-11-04T01:17:13.361Z,0.00
2017-11-04T01:18:13.874Z,0.00
2017-11-04T01:19:14.176Z,0.00
2017-11-04T01:20:13.920Z,0.00
2017-11-04T01:21:14.916Z,0.00
2017-11-04T01:22:15.707Z,0.00
2017-11-04T01:23:12.869Z,0.00
2017-11-04T01:24:14.877Z,0.00
2017-11-04T01:25:13.239Z,0.00
2017-11-04T01:26:12.440Z,0.00
2017-11-04T01:27:14.159Z,0.00
2017-11-04T01:28:12.094Z,0.00
2017-11-04T01:29:12.749Z,0.00
2017-11-04T01:30:12.641Z,0.00
2017-11-04T01:31:15.209Z,0.00
2017-11-04T01:32:12.285Z,0.00
2017-11-04T01:33:14.087Z,0.00
2017-11-04T01:34:12.381Z,0.00
2017-11-04T01:35:10.184Z,0.00
2017-11-04T01:36:10.159Z,0.00
2017-11-04T01:37:10.810Z,0.00
2017-11-04T01:38:11.197Z,0.00
2017-11-04T01:39:10.651Z,0.00
2017-11-04T01:40:10.521Z,0.00
2017-11-04T01:41:10.598Z,0.00
2017-11-04T01:42:10.938Z,0.00
2017-11-04T01:43:10.350Z,0.00
2017-11-04T01:44:10.197Z,0.00
2017-11-04T01:45:10.480Z,0.00
2017-11-04T01:46:11.470Z,0.00
2017-11-04T01:47:10.634Z,0.00
2017-11-04T01:48:10.824Z,0.00
2017-11-04T01:49:11.727Z,0.00
2017-11-04T01:50:11.629Z,0.00
2017-11-04T01:51:11.972Z,0.00
2017-11-04T01:52:12.653Z,0.00
2017-11-04T01:53:13.719Z,0.00
2017-11-04T01:54:11.686Z,0.00
2017-11-04T01:55:12.804Z,0.00
2017-11-04T01:56:11.428Z,0.00
2017-11-04T01:57:10.872Z,0.00
2017-11-04T01:58:11.334Z,0.00
2017-11-04T01:59:11.549Z,0.00
2017-11-04T02:00:11.006Z,0.00
2017-11-04T02:01:10.475Z,0.00
2017-11-04T02:02:10.774Z,0.00
2017-11-04T02:03:10.983Z,0.00
2017-11-04T02:04:11.447Z,0.00
2017-11-04T02:05:17.126Z,0.00
2017-11-04T02:06:22.486Z,0.00
2017-11-04T02:07:10.985Z,0.00
2017-11-04T02:08:11.208Z,0.00
2017-11-04T02:09:12.747Z,0.00
2017-11-04T02:10:12.377Z,0.00
2017-11-04T02:11:10.582Z,0.00
2017-11-04T02:12:11.372Z,0.00
2017-11-04T02:13:10.158Z,0.00
2017-11-04T02:14:10.303Z,0.00
2017-11-04T02:15:11.424Z,0.00
2017-11-04T02:16:10.989Z,0.00
2017-11-04T02:17:11.575Z,0.00
2017-11-04T02:18:10.760Z,0.00
2017-11-04T02:19:10.547Z,0.00
2017-11-04T02:20:11.120Z,0.00
2017-11-04T02:21:09.863Z,0.00
2017-11-04T02:22:11.189Z,0.00
2017-11-04T02:23:10.181Z,0.00
2017-11-04T02:24:10.617Z,0.00
2017-11-04T02:25:10.931Z,0.00
2017-11-04T02:26:10.913Z,0.00
2017-11-04T02:27:09.964Z,0.00
2017-11-04T02:28:09.868Z,0.00
2017-11-04T02:29:10.637Z,0.00
2017-11-04T02:30:10.511Z,0.00
2017-11-04T02:31:10.590Z,0.00
2017-11-04T02:32:11.199Z,0.00
2017-11-04T02:33:10.423Z,0.00
2017-11-04T02:34:10.349Z,0.00
2017-11-04T02:35:10.379Z,0.00
2017-11-04T02:36:10.627Z,0.00
2017-11-04T02:37:10.787Z,0.00
2017-11-04T02:38:11.072Z,0.00
2017-11-04T02:39:09.905Z,0.00
2017-11-04T02:40:10.823Z,0.00
2017-11-04T02:41:10.681Z,0.00
2017-11-04T02:42:10.659Z,0.00
2017-11-04T02:43:10.532Z,0.00
2017-11-04T02:44:10.753Z,0.00
2017-11-04T02:45:10.668Z,0.00
2017-11-04T02:46:11.034Z,0.00
2017-11-04T02:47:10.420Z,0.00
2017-11-04T02:48:10.007Z,0.00
2017-11-04T02:49:09.868Z,0.00
2017-11-04T02:50:11.130Z,0.00
2017-11-04T02:51:10.425Z,0.00
2017-11-04T02:52:10.490Z,0.00
2017-11-04T02:53:10.437Z,0.00
2017-11-04T02:54:10.716Z,0.00
2017-11-04T02:55:10.909Z,0.00
2017-11-04T02:56:11.347Z,0.00
2017-11-04T02:57:10.552Z,0.00
2017-11-04T02:58:10.435Z,0.00
2017-11-04T02:59:10.843Z,0.00
2017-11-04T03:00:11.108Z,0.00
2017-11-04T03:01:10.283Z,0.00
2017-11-04T03:02:10.706Z,0.00
2017-11-04T03:03:10.566Z,0.00
2017-11-04T03:04:10.845Z,0.00
2017-11-04T03:05:10.263Z,0.00
2017-11-04T03:06:10.138Z,0.00
2017-11-04T03:07:10.204Z,0.00
2017-11-04T03:08:11.420Z,0.00
2017-11-04T03:09:10.080Z,0.00
2017-11-04T03:10:09.893Z,0.00
2017-11-04T03:11:11.151Z,0.00
2017-11-04T03:12:10.140Z,0.00
2017-11-04T03:13:10.420Z,0.00
2017-11-04T03:14:10.228Z,0.00
2017-11-04T03:15:10.507Z,0.00
2017-11-04T03:16:10.121Z,0.00
2017-11-04T03:17:09.916Z,0.00
2017-11-04T03:18:10.171Z,0.00
2017-11-04T03:19:11.448Z,0.00
2017-11-04T03:20:10.508Z,0.00
2017-11-04T03:21:10.825Z,0.00
2017-11-04T03:22:11.054Z,0.00
2017-11-04T03:23:09.889Z,0.00
2017-11-04T03:24:09.948Z,0.00
2017-11-04T03:25:10.564Z,0.00
2017-11-04T03:26:10.449Z,0.00
2017-11-04T03:27:10.177Z,0.00
2017-11-04T03:28:10.120Z,0.00
2017-11-04T03:29:10.479Z,0.00
2017-11-04T03:30:11.079Z,0.00
2017-11-04T03:31:10.309Z,0.00
2017-11-04T03:32:10.324Z,0.00
2017-11-04T03:33:11.052Z,0.00
2017-11-04T03:34:10.397Z,0.00
2017-11-04T03:35:10.766Z,0.00
2017-11-04T03:36:11.326Z,0.00
2017-11-04T03:37:10.540Z,0.00
2017-11-04T03:38:11.110Z,0.00
2017-11-04T03:39:09.975Z,0.00
2017-11-04T03:40:10.996Z,0.00
2017-11-04T03:41:11.554Z,0.00
2017-11-04T03:42:10.640Z,0.00
2017-11-04T03:43:10.743Z,0.00
2017-11-04T03:44:10.897Z,0.00
2017-11-04T03:45:10.011Z,0.00
2017-11-04T03:46:10.112Z,0.00
2017-11-04T03:47:10.681Z,0.00
2017-11-04T03:48:10.529Z,0.00
2017-11-04T03:49:10.817Z,0.00
2017-11-04T03:50:10.715Z,0.00
2017-11-04T03:51:10.728Z,0.00
2017-11-04T03:52:11.286Z,0.00
2017-11-04T03:53:10.097Z,0.00
2017-11-04T03:54:10.037Z,0.00
2017-11-04T03:55:10.179Z,0.00
2017-11-04T03:56:10.515Z,0.00
2017-11-04T03:57:10.266Z,0.00
2017-11-04T03:58:10.885Z,0.00
2017-11-04T03:59:10.994Z,0.00
2017-11-04T04:00:09.901Z,0.00
2017-11-04T04:01:10.284Z,0.00
2017-11-04T04:02:10.030Z,0.00
2017-11-04T04:03:10.813Z,0.00
2017-11-04T04:04:11.097Z,0.00
2017-11-04T04:05:10.156Z,0.00
2017-11-04T04:06:10.353Z,0.00
2017-11-04T04:07:10.284Z,0.00
2017-11-04T04:08:10.655Z,0.00
2017-11-04T04:09:10.566Z,0.00
2017-11-04T04:10:10.475Z,0.00
2017-11-04T04:11:10.802Z,0.00
2017-11-04T04:12:10.845Z,0.00
2017-11-04T04:13:11.162Z,0.00
2017-11-04T04:14:10.880Z,0.00
2017-11-04T04:15:11.362Z,0.00
2017-11-04T04:16:10.251Z,0.00
2017-11-04T04:17:10.182Z,0.00
2017-11-04T04:18:10.522Z,0.00
2017-11-04T04:19:10.917Z,0.00
2017-11-04T04:20:10.716Z,0.00
2017-11-04T04:21:10.662Z,0.00
2017-11-04T04:22:10.573Z,0.00
2017-11-04T04:23:11.201Z,0.00
2017-11-04T04:24:10.322Z,0.00
2017-11-04T04:25:11.122Z,0.00
2017-11-04T04:26:10.448Z,0.00
2017-11-04T04:27:11.038Z,0.00
2017-11-04T04:28:09.844Z,0.00
2017-11-04T04:29:10.895Z,0.00
2017-11-04T04:30:11.519Z,0.00
2017-11-04T04:31:10.423Z,0.00
2017-11-04T04:32:10.689Z,0.00
2017-11-04T04:33:10.492Z,0.00
2017-11-04T04:34:10.284Z,0.00
2017-11-04T04:35:10.538Z,0.00
2017-11-04T04:36:11.445Z,0.00
2017-11-04T04:37:10.453Z,0.00
2017-11-04T04:38:10.690Z,0.00
2017-11-04T04:39:11.108Z,0.00
2017-11-04T04:40:10.330Z,0.00
2017-11-04T04:41:10.072Z,0.00
2017-11-04T04:42:11.161Z,0.00
2017-11-04T04:43:10.025Z,0.00
2017-11-04T04:44:11.143Z,0.00
2017-11-04T04:45:10.040Z,0.00
2017-11-04T04:46:10.136Z,0.00
2017-11-04T04:47:10.259Z,0.00
2017-11-04T04:48:11.251Z,0.00
2017-11-04T04:49:10.244Z,0.00
2017-11-04T04:50:11.169Z,0.00
2017-11-04T04:51:10.022Z,0.00
2017-11-04T04:52:10.710Z,0.00
2017-11-04T04:53:11.232Z,0.00
2017-11-04T04:54:10.033Z,0.00
2017-11-04T04:55:10.834Z,0.00
2017-11-04T04:56:10.562Z,0.00
2017-11-04T04:57:10.211Z,0.00
2017-11-04T04:58:10.315Z,0.00
2017-11-04T04:59:10.808Z,0.00
2017-11-04T05:00:10.526Z,0.00
2017-11-04T05:01:10.176Z,0.00
2017-11-04T05:02:09.834Z,0.00
2017-11-04T05:03:10.585Z,0.00
2017-11-04T05:04:10.748Z,0.00
2017-11-04T05:05:10.950Z,0.00
2017-11-04T05:06:11.025Z,0.00
2017-11-04T05:07:10.532Z,0.00
2017-11-04T05:08:10.629Z,0.00
2017-11-04T05:09:10.377Z,0.00
2017-11-04T05:10:10.308Z,0.00
2017-11-04T05:11:10.065Z,0.00
2017-11-04T05:12:10.821Z,0.00
2017-11-04T05:13:10.847Z,0.00
2017-11-04T05:14:10.607Z,0.00
2017-11-04T05:15:11.029Z,0.00
2017-11-04T05:16:09.913Z,0.00
2017-11-04T05:17:10.479Z,0.00
2017-11-04T05:18:10.146Z,0.00
2017-11-04T05:19:10.351Z,0.00
2017-11-04T05:20:10.152Z,0.00
2017-11-04T05:21:10.799Z,0.00
2017-11-04T05:22:10.914Z,0.00
2017-11-04T05:23:10.582Z,0.00
2017-11-04T05:24:10.330Z,0.00
2017-11-04T05:25:10.550Z,0.00
2017-11-04T05:26:10.710Z,0.00
2017-11-04T05:27:10.415Z,0.00
2017-11-04T05:28:10.144Z,0.00
2017-11-04T05:29:09.788Z,0.00
2017-11-04T05:30:10.655Z,0.00
2017-11-04T05:31:10.428Z,0.00
2017-11-04T05:32:11.089Z,0.00
2017-11-04T05:33:10.727Z,0.00
2017-11-04T05:34:10.875Z,0.00
2017-11-04T05:35:10.979Z,0.00
2017-11-04T05:36:11.015Z,0.00
2017-11-04T05:37:11.414Z,0.00
2017-11-04T05:38:10.184Z,0.00
2017-11-04T05:39:09.763Z,0.00
2017-11-04T05:40:10.975Z,0.00
2017-11-04T05:41:11.063Z,0.00
2017-11-04T05:42:10.984Z,0.00
2017-11-04T05:43:10.799Z,0.00
2017-11-04T05:44:10.803Z,0.00
2017-11-04T05:45:10.522Z,1.00
2017-11-04T05:46:10.279Z,1.00
2017-11-04T05:47:09.960Z,0.00
2017-11-04T05:48:11.090Z,1.00
2017-11-04T05:49:10.765Z,1.00
2017-11-04T05:50:10.952Z,0.00
2017-11-04T05:51:11.108Z,1.00
2017-11-04T05:52:10.881Z,2.00
2017-11-04T05:53:10.579Z,1.00
2017-11-04T05:54:11.149Z,2.00
2017-11-04T05:55:09.797Z,2.00
2017-11-04T05:56:10.879Z,2.00
2017-11-04T05:57:10.758Z,3.00
2017-11-04T05:58:10.743Z,4.00
2017-11-04T05:59:10.094Z,4.00
2017-11-04T06:00:10.638Z,4.00
2017-11-04T06:01:10.707Z,6.00
2017-11-04T06:02:10.452Z,6.00
2017-11-04T06:03:10.132Z,8.00
2017-11-04T06:04:10.437Z,9.00
2017-11-04T06:05:10.870Z,11.00
2017-11-04T06:06:11.084Z,13.00
2017-11-04T06:07:11.066Z,16.00
2017-11-04T06:08:10.411Z,19.00
2017-11-04T06:09:10.629Z,22.00
2017-11-04T06:10:10.997Z,27.00
2017-11-04T06:11:10.733Z,31.00
2017-11-04T06:12:10.501Z,36.00
2017-11-04T06:13:10.382Z,43.00
2017-11-04T06:14:10.131Z,50.00
2017-11-04T06:15:10.266Z,58.00
2017-11-04T06:16:10.366Z,68.00
2017-11-04T06:17:10.581Z,78.00
2017-11-04T06:18:10.361Z,90.00
2017-11-04T06:19:09.952Z,103.00
2017-11-04T06:20:10.442Z,119.00
2017-11-04T06:21:10.504Z,132.00
2017-11-04T06:22:10.802Z,148.00
2017-11-04T06:23:10.825Z,163.00
2017-11-04T06:24:10.975Z,180.00
2017-11-04T06:25:11.169Z,197.00
2017-11-04T06:26:10.757Z,216.00
2017-11-04T06:27:10.811Z,236.00
2017-11-04T06:28:10.676Z,257.00
2017-11-04T06:29:10.842Z,280.00
2017-11-04T06:30:10.750Z,304.00
2017-11-04T06:31:10.847Z,329.00
2017-11-04T06:32:11.216Z,356.00
2017-11-04T06:33:10.231Z,384.00
2017-11-04T06:34:10.414Z,415.00
2017-11-04T06:35:10.084Z,449.00
2017-11-04T06:36:10.032Z,487.00
2017-11-04T06:37:11.153Z,532.00
2017-11-04T06:38:10.326Z,581.00
2017-11-04T06:39:10.788Z,633.00
2017-11-04T06:40:11.020Z,691.00
2017-11-04T06:41:11.306Z,745.00
2017-11-04T06:42:10.653Z,795.00
2017-11-04T06:43:10.837Z,842.00
2017-11-04T06:44:10.409Z,888.00
2017-11-04T06:45:10.706Z,931.00
2017-11-04T06:46:10.820Z,977.00
2017-11-04T06:47:10.605Z,1023.00
2017-11-04T06:48:10.494Z,1080.00
2017-11-04T06:49:10.857Z,1148.00
2017-11-04T06:50:10.291Z,1224.00
2017-11-04T06:51:10.891Z,1309.00
2017-11-04T06:52:11.246Z,1396.00
2017-11-04T06:53:10.192Z,1475.00
2017-11-04T06:54:10.573Z,1547.00
2017-11-04T06:55:10.919Z,1611.00
2017-11-04T06:56:11.329Z,1672.00
2017-11-04T06:57:10.235Z,1723.00
2017-11-04T06:58:10.478Z,1778.00
2017-11-04T06:59:11.133Z,1836.00
2017-11-04T07:00:10.877Z,1893.00
2017-11-04T07:01:11.970Z,1952.00
2017-11-04T07:02:11.545Z,2009.00
2017-11-04T07:03:10.368Z,2072.00
2017-11-04T07:04:11.054Z,2124.00
2017-11-04T07:05:09.968Z,2185.00
2017-11-04T07:06:11.417Z,2238.00
2017-11-04T07:07:10.275Z,2298.00
2017-11-04T07:08:10.093Z,2370.00
2017-11-04T07:09:10.799Z,2448.00
2017-11-04T07:10:10.740Z,2535.00
2017-11-04T07:11:10.630Z,2622.00
2017-11-04T07:12:11.160Z,2712.00
2017-11-04T07:13:10.210Z,2807.00
2017-11-04T07:14:10.590Z,2899.00
2017-11-04T07:15:10.473Z,2984.00
2017-11-04T07:16:10.845Z,3065.00
2017-11-04T07:17:11.221Z,3140.00
2017-11-04T07:18:10.133Z,3208.00
2017-11-04T07:19:10.926Z,3281.00
2017-11-04T07:20:10.721Z,3349.00
2017-11-04T07:21:11.130Z,3423.00
2017-11-04T07:22:10.095Z,3503.00
2017-11-04T07:23:11.382Z,3594.00
2017-11-04T07:24:10.806Z,3680.00
2017-11-04T07:25:11.505Z,3774.00
2017-11-04T07:26:10.401Z,3879.00
2017-11-04T07:27:10.370Z,3967.00
2017-11-04T07:28:10.299Z,4057.00
2017-11-04T07:29:11.027Z,4144.00
2017-11-04T07:30:10.875Z,4245.00
2017-11-04T07:31:10.910Z,4328.00
2017-11-04T07:32:10.844Z,4411.00
2017-11-04T07:33:11.523Z,4480.00
2017-11-04T07:34:11.067Z,4565.00
2017-11-04T07:35:10.107Z,4635.00
2017-11-04T07:36:10.105Z,4711.00
2017-11-04T07:37:10.374Z,4782.00
2017-11-04T07:38:10.068Z,4853.00
2017-11-04T07:39:11.310Z,4914.00
2017-11-04T07:40:10.709Z,4969.00
2017-11-04T07:41:10.934Z,5039.00
2017-11-04T07:42:10.925Z,5082.00
2017-11-04T07:43:10.874Z,5127.00
2017-11-04T07:44:10.255Z,5141.00
2017-11-04T07:45:11.129Z,5168.00
2017-11-04T07:46:10.929Z,5172.00
2017-11-04T07:47:10.904Z,5155.00
2017-11-04T07:48:10.084Z,5131.00
2017-11-04T07:49:10.783Z,5133.00
2017-11-04T07:50:10.387Z,5223.00
2017-11-04T07:51:10.209Z,5375.00
2017-11-04T07:52:10.536Z,5513.00
2017-11-04T07:53:10.981Z,5684.00
2017-11-04T07:54:11.357Z,5761.00
2017-11-04T07:55:10.514Z,5894.00
2017-11-04T07:56:11.016Z,6126.00
2017-11-04T07:57:10.556Z,6255.00
2017-11-04T07:58:11.135Z,6547.00
2017-11-04T07:59:10.919Z,7149.00
2017-11-04T08:00:10.555Z,7254.00
2017-11-04T08:01:11.179Z,7250.00
2017-11-04T08:02:10.228Z,7068.00
2017-11-04T08:03:10.208Z,7319.00
2017-11-04T08:04:10.497Z,7698.00
2017-11-04T08:05:11.575Z,7818.00
2017-11-04T08:06:10.246Z,8063.00
2017-11-04T08:07:10.582Z,7973.00
2017-11-04T08:08:10.439Z,8214.00
2017-11-04T08:09:10.314Z,8921.00
2017-11-04T08:10:10.770Z,8970.00
2017-11-04T08:11:11.257Z,8680.00
2017-11-04T08:12:10.259Z,8347.00
2017-11-04T08:13:10.155Z,8022.00
2017-11-04T08:14:10.500Z,8047.00
2017-11-04T08:15:10.374Z,8631.00
2017-11-04T08:16:10.285Z,8632.00
2017-11-04T08:17:11.604Z,9067.00
2017-11-04T08:18:10.852Z,9280.00
2017-11-04T08:19:10.777Z,9552.00
2017-11-04T08:20:11.223Z,9995.00
2017-11-04T08:21:10.698Z,9769.00
2017-11-04T08:22:11.397Z,9036.00
2017-11-04T08:23:10.296Z,8338.00
2017-11-04T08:24:10.879Z,8058.00
2017-11-04T08:25:10.832Z,7714.00
2017-11-04T08:26:11.257Z,7076.00
2017-11-04T08:27:10.793Z,6551.00
2017-11-04T08:28:11.580Z,6235.00
2017-11-04T08:29:11.107Z,6408.00
2017-11-04T08:30:10.428Z,6934.00
2017-11-04T08:31:10.695Z,7904.00
2017-11-04T08:32:11.069Z,9009.00
2017-11-04T08:33:12.387Z,10360.00
2017-11-04T08:34:10.900Z,11845.00
2017-11-04T08:35:11.397Z,13117.00
2017-11-04T08:36:10.828Z,13674.00
2017-11-04T08:37:10.882Z,13877.00
2017-11-04T08:38:10.215Z,14276.00
2017-11-04T08:39:11.045Z,14352.00
2017-11-04T08:40:11.007Z,14390.00
2017-11-04T08:41:10.557Z,14634.00
2017-11-04T08:42:10.615Z,15013.00
2017-11-04T08:43:11.476Z,15089.00
2017-11-04T08:44:11.371Z,14967.00
2017-11-04T08:45:10.850Z,14740.00
2017-11-04T08:46:11.344Z,14040.00
2017-11-04T08:47:10.746Z,13196.00
2017-11-04T08:48:11.138Z,12382.00
2017-11-04T08:49:11.023Z,11582.00
2017-11-04T08:50:11.616Z,10934.00
2017-11-04T08:51:10.686Z,10470.00
2017-11-04T08:52:10.763Z,10298.00
2017-11-04T08:53:10.748Z,10188.00
2017-11-04T08:54:13.156Z,10251.00
2017-11-04T08:55:10.416Z,10231.00
2017-11-04T08:56:10.943Z,10655.00
2017-11-04T08:57:10.931Z,11362.00
2017-11-04T08:58:11.363Z,11871.00
2017-11-04T08:59:11.062Z,12381.00
2017-11-04T09:00:11.920Z,12630.00
2017-11-04T09:01:11.541Z,12787.00
2017-11-04T09:02:10.542Z,12859.00
2017-11-04T09:03:10.342Z,12939.00
2017-11-04T09:04:11.377Z,13060.00
2017-11-04T09:05:10.872Z,13379.00
2017-11-04T09:06:11.733Z,13621.00
2017-11-04T09:07:10.760Z,13778.00
2017-11-04T09:08:11.238Z,13826.00
2017-11-04T09:09:10.713Z,13759.00
2017-11-04T09:10:11.231Z,13551.00
2017-11-04T09:11:10.789Z,13256.00
2017-11-04T09:12:11.075Z,12898.00
2017-11-04T09:13:11.498Z,12813.00
2017-11-04T09:14:10.666Z,12884.00
2017-11-04T09:15:11.925Z,13402.00
2017-11-04T09:16:10.905Z,13919.00
2017-11-04T09:17:11.937Z,14397.00
2017-11-04T09:18:11.370Z,14448.00
2017-11-04T09:19:11.132Z,13850.00
2017-11-04T09:20:10.511Z,13476.00
2017-11-04T09:21:12.148Z,12532.00
2017-11-04T09:22:10.820Z,12595.00
2017-11-04T09:23:10.344Z,11268.00
2017-11-04T09:24:10.344Z,10644.00
2017-11-04T09:25:10.771Z,10270.00
2017-11-04T09:26:10.863Z,10636.00
2017-11-04T09:27:11.042Z,13648.00
2017-11-04T09:28:10.968Z,18432.00
2017-11-04T09:29:10.592Z,22824.00
2017-11-04T09:30:10.855Z,20672.00
2017-11-04T09:31:12.078Z,23456.00
2017-11-04T09:32:10.426Z,23944.00
2017-11-04T09:33:10.719Z,24232.00
2017-11-04T09:34:10.762Z,24576.00
2017-11-04T09:35:11.239Z,24576.00
2017-11-04T09:36:10.903Z,23376.00
2017-11-04T09:37:11.706Z,21440.00
2017-11-04T09:38:11.718Z,20400.00
2017-11-04T09:39:10.851Z,20464.00
2017-11-04T09:40:10.741Z,19920.00
2017-11-04T09:41:10.933Z,20416.00
2017-11-04T09:42:11.471Z,21736.00
2017-11-04T09:43:11.082Z,21928.00
2017-11-04T09:44:11.915Z,21816.00
2017-11-04T09:45:11.103Z,27528.00
2017-11-04T09:46:10.688Z,26672.00
2017-11-04T09:47:11.278Z,24472.00
2017-11-04T09:48:10.535Z,23216.00
2017-11-04T09:49:10.671Z,23240.00
2017-11-04T09:50:11.308Z,24536.00
2017-11-04T09:51:11.328Z,24432.00
2017-11-04T09:52:10.407Z,24176.00
2017-11-04T09:53:12.013Z,24400.00
2017-11-04T09:54:10.856Z,23704.00
2017-11-04T09:55:13.283Z,20136.00
2017-11-04T09:56:11.111Z,20392.00
2017-11-04T09:57:11.502Z,19808.00
2017-11-04T09:58:11.486Z,22896.00
2017-11-04T09:59:12.050Z,23176.00
2017-11-04T10:00:10.835Z,23800.00
2017-11-04T10:01:11.861Z,24704.00
2017-11-04T10:02:12.587Z,24368.00
2017-11-04T10:03:11.685Z,23120.00
2017-11-04T10:04:11.129Z,18368.00
2017-11-04T10:05:11.631Z,12673.00
2017-11-04T10:06:11.692Z,11149.00
2017-11-04T10:07:11.628Z,11925.00
2017-11-04T10:08:10.743Z,15717.00
2017-11-04T10:09:11.217Z,15388.00
2017-11-04T10:10:10.417Z,18144.00
2017-11-04T10:11:10.449Z,14029.00
2017-11-04T10:12:10.515Z,13415.00
2017-11-04T10:13:11.024Z,17160.00
2017-11-04T10:14:11.106Z,19456.00
2017-11-04T10:15:10.938Z,25680.00
2017-11-04T10:16:12.089Z,19576.00
2017-11-04T10:17:12.167Z,18960.00
2017-11-04T10:18:10.909Z,22072.00
2017-11-04T10:19:11.697Z,25104.00
2017-11-04T10:20:11.177Z,24096.00
2017-11-04T10:21:10.436Z,22856.00
2017-11-04T10:22:10.558Z,23720.00
2017-11-04T10:23:10.871Z,26400.00
2017-11-04T10:24:12.207Z,22280.00
2017-11-04T10:25:11.766Z,34056.00
2017-11-04T10:26:11.302Z,38384.00
2017-11-04T10:27:10.871Z,43232.00
2017-11-04T10:28:16.259Z,40720.00
2017-11-04T10:29:13.078Z,33024.00
2017-11-04T10:30:10.710Z,29576.00
2017-11-04T10:31:10.871Z,24808.00
2017-11-04T10:32:12.523Z,27640.00
2017-11-04T10:33:11.257Z,25288.00
2017-11-04T10:34:12.374Z,24056.00
2017-11-04T10:35:12.142Z,25312.00
2017-11-04T10:36:11.762Z,27152.00
2017-11-04T10:37:11.105Z,27936.00
2017-11-04T10:38:10.591Z,29168.00
2017-11-04T10:39:10.761Z,31392.00
2017-11-04T10:40:11.367Z,30680.00
2017-11-04T10:41:10.993Z,27304.00
2017-11-04T10:42:11.640Z,31024.00
2017-11-04T10:43:11.796Z,34048.00
2017-11-04T10:44:11.130Z,43960.00
2017-11-04T10:45:10.861Z,32976.00
2017-11-04T10:46:11.622Z,40288.00
2017-11-04T10:47:11.305Z,31368.00
2017-11-04T10:48:11.024Z,32008.00
2017-11-04T10:49:11.642Z,33080.00
2017-11-04T10:50:11.653Z,35616.00
2017-11-04T10:51:11.100Z,30360.00
2017-11-04T10:52:11.139Z,39480.00
2017-11-04T10:53:10.244Z,33936.00
2017-11-04T10:54:10.974Z,28584.00
2017-11-04T10:55:11.685Z,25384.00
2017-11-04T10:56:11.023Z,25544.00
2017-11-04T10:57:10.957Z,25280.00
2017-11-04T10:58:11.115Z,25344.00
2017-11-04T10:59:10.815Z,25144.00
2017-11-04T11:00:11.376Z,25248.00
2017-11-04T11:01:10.690Z,24480.00
2017-11-04T11:02:12.244Z,22000.00
2017-11-04T11:03:10.920Z,13664.00
2017-11-04T11:04:11.824Z,13841.00
2017-11-04T11:05:11.542Z,12639.00
2017-11-04T11:06:11.841Z,14579.00
2017-11-04T11:07:11.399Z,31552.00
2017-11-04T11:08:10.799Z,18440.00
2017-11-04T11:09:11.402Z,19776.00
2017-11-04T11:10:11.862Z,20592.00
2017-11-04T11:11:11.460Z,22736.00
2017-11-04T11:12:11.733Z,24456.00
2017-11-04T11:13:11.711Z,31184.00
2017-11-04T11:14:11.011Z,48320.00
2017-11-04T11:15:11.044Z,46800.00
2017-11-04T11:16:10.620Z,42328.00
2017-11-04T11:17:10.319Z,38112.00
2017-11-04T11:18:11.553Z,23288.00
2017-11-04T11:19:11.053Z,18848.00
2017-11-04T11:20:10.254Z,27280.00
2017-11-04T11:21:10.362Z,23744.00
2017-11-04T11:22:10.627Z,17344.00
2017-11-04T11:23:11.995Z,23512.00
2017-11-04T11:24:12.607Z,14935.00
2017-11-04T11:25:11.362Z,17192.00
2017-11-04T11:26:10.517Z,11400.00
2017-11-04T11:27:12.045Z,11050.00
2017-11-04T11:28:10.538Z,13350.00
2017-11-04T11:29:11.141Z,17504.00
2017-11-04T11:30:11.165Z,14893.00
2017-11-04T11:31:10.656Z,15945.00
2017-11-04T11:32:11.095Z,22472.00
2017-11-04T11:33:10.521Z,27040.00
2017-11-04T11:34:11.071Z,27640.00
2017-11-04T11:35:11.795Z,31112.00
2017-11-04T11:36:10.844Z,29568.00
2017-11-04T11:37:11.278Z,24144.00
2017-11-04T11:38:10.590Z,29976.00
2017-11-04T11:39:10.960Z,31392.00
2017-11-04T11:40:11.945Z,26440.00
2017-11-04T11:41:12.160Z,31128.00
2017-11-04T11:42:10.757Z,28696.00
2017-11-04T11:43:10.879Z,19056.00
2017-11-04T11:44:11.165Z,30832.00
2017-11-04T11:45:10.971Z,31616.00
2017-11-04T11:46:11.592Z,29240.00
2017-11-04T11:47:10.738Z,26344.00
2017-11-04T11:48:11.273Z,29936.00
2017-11-04T11:49:10.839Z,27304.00
2017-11-04T11:50:11.380Z,22032.00
2017-11-04T11:51:10.981Z,15880.00
2017-11-04T11:52:13.001Z,14948.00
2017-11-04T11:53:12.099Z,18944.00
2017-11-04T11:54:12.346Z,15262.00
2017-11-04T11:55:11.134Z,15776.00
2017-11-04T11:56:10.968Z,14913.00
2017-11-04T11:57:10.770Z,10441.00
2017-11-04T11:58:11.860Z,9948.00
2017-11-04T11:59:10.939Z,10322.00
2017-11-04T12:00:10.773Z,10723.00
2017-11-04T12:01:10.724Z,11298.00
2017-11-04T12:02:10.718Z,10822.00
2017-11-04T12:03:10.856Z,12746.00
2017-11-04T12:04:11.730Z,11875.00
2017-11-04T12:05:11.498Z,12370.00
2017-11-04T12:06:10.848Z,12913.00
2017-11-04T12:07:11.514Z,13603.00
2017-11-04T12:08:10.687Z,14346.00
2017-11-04T12:09:11.122Z,14894.00
2017-11-04T12:10:11.113Z,15358.00
2017-11-04T12:11:10.893Z,15810.00
2017-11-04T12:12:11.582Z,16210.00
2017-11-04T12:13:11.686Z,16984.00
2017-11-04T12:14:11.894Z,17800.00
2017-11-04T12:15:11.246Z,18720.00
2017-11-04T12:16:10.778Z,20232.00
2017-11-04T12:17:12.891Z,21232.00
2017-11-04T12:18:11.273Z,22704.00
2017-11-04T12:19:10.611Z,26152.00
2017-11-04T12:20:11.562Z,27240.00
2017-11-04T12:21:11.217Z,25080.00
2017-11-04T12:22:10.812Z,23744.00
2017-11-04T12:23:10.995Z,23968.00
2017-11-04T12:24:10.285Z,24480.00
2017-11-04T12:25:11.201Z,23936.00
2017-11-04T12:26:12.593Z,29280.00
2017-11-04T12:27:10.733Z,27856.00
2017-11-04T12:28:12.039Z,33096.00
2017-11-04T12:29:11.461Z,35080.00
2017-11-04T12:30:11.103Z,25480.00
2017-11-04T12:31:10.236Z,25176.00
2017-11-04T12:32:10.873Z,22424.00
2017-11-04T12:33:10.913Z,22792.00